Colville, Kentucky
Current Conditions -  °F | °C
As of 6:35 PM on Wednesday 22 Oct 2014 (Local Time) from KIOB Reporting Station
Overcast Overcast  
Wind Chill: 50°   Ceiling: 2800
Heat Index: 50°   Visibility: 10mi
Dew Point: 43°   Wind: 3mph
Humidity: 76%   Direction: 50°NE
Pressure: 30.26"   Gusts: NA
Location:  38.4145°N, 84.2859°W
Report Text: KIOB 222235Z AUTO 05003KT 10SM BKN028 OVC034 10/06 A3026 RMK AO2
Loading
Personal Weather Stations






























Interactive Weather Map
Tropical Storm Tracking
New forecast layout! Learn more

10-Day Weather Forecast

Advertisements
Track Severe Weather on mobile